createdAt,value
2024-03-10T00:05:33.599Z,28.10
2024-03-10T00:11:27.932Z,30.70
2024-03-10T00:17:22.407Z,29.13
2024-03-10T00:23:16.016Z,28.23
2024-03-10T00:29:11.808Z,30.27
2024-03-10T00:35:10.256Z,27.40
2024-03-10T00:41:03.371Z,32.63
2024-03-10T00:46:58.474Z,31.00
2024-03-10T00:52:53.475Z,29.23
2024-03-10T00:58:47.150Z,29.60
2024-03-10T01:04:40.592Z,31.50
2024-03-10T01:10:36.998Z,31.10
2024-03-10T01:16:31.376Z,31.87
2024-03-10T01:22:24.762Z,28.27
2024-03-10T01:28:19.465Z,29.00
2024-03-10T01:34:12.936Z,30.20
2024-03-10T01:40:07.568Z,36.37
2024-03-10T01:46:08.137Z,28.67
2024-03-10T01:52:01.708Z,27.90
2024-03-10T01:57:54.883Z,29.30
2024-03-10T02:03:52.093Z,28.27
2024-03-10T02:09:46.364Z,31.30
2024-03-10T02:15:40.082Z,30.43
2024-03-10T02:21:35.310Z,31.37
2024-03-10T02:27:31.227Z,31.80
2024-03-10T02:33:42.023Z,30.70
2024-03-10T02:39:52.975Z,33.50
2024-03-10T02:46:05.537Z,30.43
2024-03-10T02:51:58.582Z,31.97
2024-03-10T02:57:51.804Z,30.47
2024-03-10T03:03:46.675Z,32.87
2024-03-10T03:09:40.363Z,27.83
2024-03-10T03:15:33.587Z,33.40
2024-03-10T03:21:27.921Z,32.37
2024-03-10T03:27:21.501Z,32.50
2024-03-10T03:33:14.914Z,29.47
2024-03-10T03:39:10.536Z,30.80
2024-03-10T03:45:04.356Z,30.90
2024-03-10T03:50:57.595Z,30.17
2024-03-10T03:56:52.175Z,32.10
2024-03-10T04:02:48.009Z,34.07
2024-03-10T04:08:41.058Z,31.97
2024-03-10T04:14:35.428Z,33.37
2024-03-10T04:20:29.085Z,29.43
2024-03-10T04:26:24.503Z,31.30
2024-03-10T04:32:18.949Z,32.90
2024-03-10T04:38:12.290Z,37.33
2024-03-10T04:44:05.948Z,34.13
2024-03-10T04:50:00.776Z,35.20
2024-03-10T04:55:53.908Z,32.37
2024-03-10T05:01:47.041Z,37.20
2024-03-10T05:07:42.174Z,37.43
2024-03-10T05:13:37.245Z,34.40
2024-03-10T05:19:30.953Z,35.10
2024-03-10T05:25:25.590Z,33.60
2024-03-10T05:31:29.387Z,36.40
2024-03-10T05:37:23.612Z,33.23
2024-03-10T05:43:18.205Z,36.73
2024-03-10T05:49:11.468Z,35.17
2024-03-10T05:55:08.607Z,30.60
2024-03-10T06:01:03.529Z,35.50
2024-03-10T06:06:56.848Z,31.40
2024-03-10T06:12:50.142Z,33.47
2024-03-10T06:19:02.234Z,33.57
2024-03-10T06:25:13.048Z,36.87
2024-03-10T06:31:06.151Z,33.60
2024-03-10T06:37:00.964Z,33.30
2024-03-10T06:42:54.169Z,34.10
2024-03-10T06:48:47.533Z,32.63
2024-03-10T06:54:42.521Z,35.77
2024-03-10T07:00:36.202Z,34.63
2024-03-10T07:06:29.694Z,32.63
2024-03-10T07:12:24.318Z,31.83
2024-03-10T07:18:17.746Z,35.70
2024-03-10T07:24:15.589Z,32.93
2024-03-10T07:30:13.806Z,34.60
2024-03-10T07:36:07.537Z,34.50
2024-03-10T07:42:00.984Z,36.53
2024-03-10T07:47:57.173Z,33.80
2024-03-10T07:53:50.554Z,34.20
2024-03-10T07:59:43.818Z,35.40
2024-03-10T08:05:39.380Z,32.27
2024-03-10T08:11:33.118Z,34.70
2024-03-10T08:17:26.274Z,33.87
2024-03-10T08:23:21.763Z,36.87
2024-03-10T08:29:15.044Z,36.00
2024-03-10T08:35:15.640Z,32.93
2024-03-10T08:41:12.053Z,37.40
2024-03-10T08:47:06.001Z,34.60
2024-03-10T08:52:59.529Z,34.40
2024-03-10T08:58:54.333Z,33.17
2024-03-10T09:04:47.334Z,32.50
2024-03-10T09:10:49.631Z,33.00
2024-03-10T09:16:49.866Z,30.80
2024-03-10T09:22:43.663Z,33.57
2024-03-10T09:28:37.942Z,32.40
2024-03-10T09:34:33.321Z,34.10
2024-03-10T09:40:30.486Z,31.50
2024-03-10T09:46:24.304Z,30.33
2024-03-10T09:52:20.223Z,29.93
2024-03-10T09:58:23.349Z,30.37
2024-03-10T10:04:26.863Z,31.37
2024-03-10T10:10:22.542Z,26.83
2024-03-10T10:16:15.571Z,29.83
2024-03-10T10:22:08.880Z,26.27
2024-03-10T10:28:03.722Z,29.10
2024-03-10T10:33:57.181Z,27.60
2024-03-10T10:39:50.779Z,28.37
2024-03-10T10:45:45.543Z,28.53
2024-03-10T10:51:39.493Z,28.20
2024-03-10T10:57:34.739Z,28.23
2024-03-10T11:03:30.594Z,25.33
2024-03-10T11:09:29.221Z,28.97
2024-03-10T11:15:25.451Z,26.83
2024-03-10T11:21:23.713Z,28.83
2024-03-10T11:27:20.064Z,25.13
2024-03-10T11:33:14.946Z,25.83
2024-03-10T11:39:21.286Z,26.43
2024-03-10T11:45:15.103Z,24.87
2024-03-10T11:51:09.816Z,26.10
2024-03-10T11:57:06.713Z,22.40
2024-03-10T12:03:00.322Z,25.37
2024-03-10T12:08:53.679Z,26.40
2024-03-10T12:14:48.525Z,26.83
2024-03-10T12:20:42.045Z,21.90
2024-03-10T12:26:35.258Z,25.73
2024-03-10T12:32:30.128Z,25.33
2024-03-10T12:38:23.743Z,26.63
2024-03-10T12:44:17.175Z,25.53
2024-03-10T12:50:12.927Z,29.50
2024-03-10T12:56:06.750Z,26.57
2024-03-10T13:02:00.235Z,25.80
2024-03-10T13:07:55.120Z,26.13
2024-03-10T13:13:48.590Z,27.20
2024-03-10T13:19:42.045Z,26.37
2024-03-10T13:25:37.505Z,25.27
2024-03-10T13:31:32.103Z,27.17
2024-03-10T13:37:25.966Z,27.07
2024-03-10T13:43:20.728Z,27.83
2024-03-10T13:49:14.207Z,25.33
2024-03-10T13:55:08.347Z,26.93
2024-03-10T14:01:05.179Z,27.27
2024-03-10T14:06:59.306Z,27.57
2024-03-10T14:12:52.640Z,28.27
2024-03-10T14:18:48.220Z,25.83
2024-03-10T14:24:42.054Z,26.13
2024-03-10T14:30:35.577Z,23.27
2024-03-10T14:36:33.045Z,25.90
2024-03-10T14:42:26.485Z,23.23
2024-03-10T14:48:20.100Z,25.53
2024-03-10T14:54:15.083Z,22.17
2024-03-10T15:00:10.658Z,20.00
2024-03-10T15:06:04.070Z,21.43
2024-03-10T15:11:58.910Z,22.70
2024-03-10T15:17:53.584Z,20.90
2024-03-10T15:23:47.020Z,23.67
2024-03-10T15:29:42.680Z,25.37
2024-03-10T15:35:36.323Z,22.60
2024-03-10T15:41:29.960Z,23.63
2024-03-10T15:47:24.709Z,23.77
2024-03-10T15:53:18.619Z,23.20
2024-03-10T15:59:12.142Z,23.77
2024-03-10T16:05:15.832Z,19.03
2024-03-10T16:11:09.415Z,24.10
2024-03-10T16:17:09.615Z,21.17
2024-03-10T16:23:04.334Z,21.10
2024-03-10T16:28:57.831Z,23.27
2024-03-10T16:34:51.810Z,25.20
2024-03-10T16:40:47.684Z,27.03
2024-03-10T16:46:41.138Z,28.20
2024-03-10T16:52:34.554Z,29.30
2024-03-10T16:58:30.734Z,26.63
2024-03-10T17:04:24.206Z,27.67
2024-03-10T17:10:17.665Z,30.43
2024-03-10T17:16:13.707Z,30.67
2024-03-10T17:22:10.202Z,26.93
2024-03-10T17:28:05.760Z,29.07
2024-03-10T17:34:00.649Z,25.90
2024-03-10T17:39:56.691Z,31.27
2024-03-10T17:45:51.557Z,27.20
2024-03-10T17:51:46.814Z,27.13
2024-03-10T17:57:40.469Z,27.17
2024-03-10T18:03:33.590Z,23.97
2024-03-10T18:09:28.868Z,24.63
2024-03-10T18:15:23.088Z,25.70
2024-03-10T18:21:16.540Z,23.87
2024-03-10T18:27:11.603Z,21.63
2024-03-10T18:33:07.863Z,25.80
2024-03-10T18:39:01.613Z,26.67
2024-03-10T18:44:56.046Z,26.93
2024-03-10T18:50:54.587Z,29.17
2024-03-10T18:56:52.636Z,26.33
2024-03-10T19:02:47.339Z,25.33
2024-03-10T19:08:40.699Z,24.20
2024-03-10T19:14:34.079Z,24.00
2024-03-10T19:20:31.491Z,24.00
2024-03-10T19:26:25.104Z,26.20
2024-03-10T19:32:18.307Z,23.03
2024-03-10T19:38:13.555Z,22.60
2024-03-10T19:44:07.218Z,23.17
2024-03-10T19:50:00.669Z,28.43
2024-03-10T19:55:56.260Z,22.80
2024-03-10T20:01:51.418Z,26.27
2024-03-10T20:07:48.801Z,21.83
2024-03-10T20:13:44.038Z,25.30
2024-03-10T20:19:38.346Z,24.17
2024-03-10T20:25:32.465Z,22.53
2024-03-10T20:31:27.115Z,24.17
2024-03-10T20:37:20.499Z,21.77
2024-03-10T20:43:13.822Z,23.10
2024-03-10T20:49:08.351Z,20.73
2024-03-10T20:55:01.727Z,22.20
2024-03-10T21:00:55.983Z,21.30
2024-03-10T21:06:50.856Z,20.57
2024-03-10T21:12:44.517Z,20.53
2024-03-10T21:18:41.041Z,22.70
2024-03-10T21:24:36.488Z,24.53
2024-03-10T21:30:29.780Z,23.00
2024-03-10T21:36:24.744Z,22.43
2024-03-10T21:42:21.008Z,24.10
2024-03-10T21:48:14.644Z,20.57
2024-03-10T21:54:11.365Z,26.93
2024-03-10T22:00:16.510Z,22.60
2024-03-10T22:06:10.570Z,21.17
2024-03-10T22:12:03.989Z,20.53
2024-03-10T22:17:59.866Z,19.20
2024-03-10T22:23:53.636Z,23.93
2024-03-10T22:29:48.297Z,20.33
2024-03-10T22:35:42.965Z,19.70
2024-03-10T22:41:37.659Z,20.43
2024-03-10T22:47:32.216Z,20.90
2024-03-10T22:53:26.906Z,23.40
2024-03-10T22:59:21.375Z,20.70
2024-03-10T23:05:14.997Z,18.70
2024-03-10T23:11:09.918Z,21.00
2024-03-10T23:17:03.284Z,19.90
2024-03-10T23:22:58.706Z,22.20
2024-03-10T23:28:53.716Z,20.03
2024-03-10T23:34:47.107Z,19.80
2024-03-10T23:40:40.327Z,19.73
2024-03-10T23:46:35.064Z,18.40
2024-03-10T23:52:28.722Z,20.10
2024-03-10T23:58:22.347Z,20.30
